Time;durP1;ratioP1;P1;durP2;ratioP2;P2;SDS_P1;SDS_P2;PMS_P1;PMS_P2;Temp;Humidity;BMP_temperature;BMP_pressure;BME280_temperature;BME280_humidity;BME280_pressure;Samples;Min_cycle;Max_cycle;Signal;HPM_P1;HPM_P2
2022/10/28 00:02:13;;;;;;;8.30;5.00;;;;;;;10.62;79.10;100079.92;102003;1294;74946;-24
2022/10/28 00:04:40;;;;;;;9.30;5.50;;;;;;;10.97;79.40;100084.22;102012;1301;61840;-25
2022/10/28 00:07:07;;;;;;;10.20;6.70;;;;;;;11.50;78.05;100083.08;102009;1301;61537;-24
2022/10/28 00:09:34;;;;;;;8.60;6.40;;;;;;;11.57;77.46;100081.05;102097;1300;76407;-24
2022/10/28 00:12:02;;;;;;;7.40;5.90;;;;;;;11.44;77.53;100075.70;102048;1293;75895;-24
2022/10/28 00:14:29;;;;;;;10.80;7.10;;;;;;;11.19;77.64;100083.23;101955;1301;75147;-24
2022/10/28 00:16:56;;;;;;;12.80;7.30;;;;;;;10.95;78.00;100083.65;102044;1296;62897;-24
2022/10/28 00:19:23;;;;;;;13.00;8.20;;;;;;;10.71;78.26;100077.95;101855;1297;61782;-24
2022/10/28 00:21:50;;;;;;;10.20;4.30;;;;;;;10.51;79.00;100079.03;102126;1300;76363;-24
2022/10/28 00:24:17;;;;;;;7.80;4.80;;;;;;;10.93;79.33;100083.58;102176;1302;76826;-24
2022/10/28 00:26:45;;;;;;;9.20;5.90;;;;;;;11.42;78.04;100085.90;102115;1301;75202;-24
2022/10/28 00:29:14;;;;;;;8.50;5.70;;;;;;;11.43;77.33;100088.57;102059;1302;62851;-24
2022/10/28 00:31:41;;;;;;;9.70;6.10;;;;;;;11.12;77.80;100085.13;101947;1296;61791;-24
2022/10/28 00:34:11;;;;;;;10.40;7.60;;;;;;;10.89;78.66;100086.15;102076;1295;76381;-24
2022/10/28 00:36:40;;;;;;;9.70;6.90;;;;;;;10.66;79.02;100079.81;101983;1303;77275;-24
2022/10/28 00:39:22;;;;;;;6.60;5.00;;;;;;;10.49;79.43;100076.02;101971;1303;74121;-24
2022/10/28 00:41:51;;;;;;;7.90;4.60;;;;;;;10.92;79.74;100081.92;102002;1301;61818;-24
2022/10/28 00:44:46;;;;;;;10.60;5.70;;;;;;;11.40;78.24;100078.92;101949;1302;62280;-25
2022/10/28 00:47:39;;;;;;;11.10;6.90;;;;;;;11.39;77.48;100077.71;102124;1300;76366;-24
2022/10/28 00:50:21;;;;;;;9.40;7.00;;;;;;;11.16;77.82;100075.10;102042;1302;75979;-24
2022/10/28 00:52:58;;;;;;;9.00;6.90;;;;;;;10.95;78.02;100075.80;102069;1302;75245;-24
2022/10/28 00:55:25;;;;;;;10.10;7.50;;;;;;;10.67;78.80;100076.98;101941;1305;62873;-23
2022/10/28 00:57:55;;;;;;;7.30;4.70;;;;;;;10.49;78.78;100076.18;102105;1301;62931;-24
2022/10/28 01:00:23;;;;;;;8.60;6.00;;;;;;;10.85;79.49;100076.62;101914;1303;76518;-23
2022/10/28 01:02:50;;;;;;;9.00;6.10;;;;;;;11.33;78.45;100077.82;101906;1303;76867;-24
2022/10/28 01:05:28;;;;;;;7.60;6.20;;;;;;;11.37;77.90;100082.91;101983;1294;75021;-23
2022/10/28 01:08:00;;;;;;;12.70;7.10;;;;;;;11.18;78.00;100082.80;101988;1303;61622;-23
2022/10/28 01:10:59;;;;;;;9.90;7.50;;;;;;;10.91;78.48;100079.56;101967;1299;61872;-23
2022/10/28 01:13:48;;;;;;;12.40;7.10;;;;;;;10.60;79.10;100080.55;101975;1304;74399;-23
2022/10/28 01:16:25;;;;;;;6.30;4.30;;;;;;;10.46;79.54;100080.92;101936;1299;75687;-24
2022/10/28 01:19:20;;;;;;;9.50;4.70;;;;;;;11.07;79.46;100082.88;101880;1303;75037;-23
2022/10/28 01:22:07;;;;;;;12.00;5.80;;;;;;;11.63;77.66;100075.04;102022;1302;62873;-24
2022/10/28 01:25:03;;;;;;;8.40;6.40;;;;;;;11.53;76.81;100075.92;101884;1292;61559;-24
2022/10/28 01:28:02;;;;;;;11.00;7.30;;;;;;;11.25;77.53;100078.87;101935;1295;76570;-23
2022/10/28 01:31:08;;;;;;;12.50;7.70;;;;;;;10.99;78.14;100079.89;101445;1307;77285;-24
2022/10/28 01:33:38;;;;;;;11.20;8.10;;;;;;;10.70;78.26;100076.38;102165;1295;73531;-23
2022/10/28 01:36:18;;;;;;;7.80;5.00;;;;;;;10.47;78.85;100069.90;101912;1303;62723;-23
2022/10/28 01:39:10;;;;;;;6.60;4.70;;;;;;;10.88;79.10;100074.20;102000;1305;61850;-23
2022/10/28 01:42:01;;;;;;;12.70;6.30;;;;;;;11.29;77.64;100072.88;101578;1304;75437;-23
2022/10/28 01:44:33;;;;;;;12.90;6.60;;;;;;;11.09;77.64;100066.76;102021;1295;74576;-23
2022/10/28 01:47:10;;;;;;;12.30;7.30;;;;;;;10.70;78.19;100062.85;102032;1302;75383;-24
2022/10/28 01:49:46;;;;;;;8.60;7.20;;;;;;;10.29;79.27;100066.01;101966;1301;62992;-24
2022/10/28 01:52:16;;;;;;;11.90;8.70;;;;;;;9.91;80.28;100069.39;101943;1299;61949;-23
2022/10/28 01:54:45;;;;;;;10.60;6.20;;;;;;;9.62;82.62;100081.20;101922;1296;75107;-23
2022/10/28 01:57:12;;;;;;;13.90;7.80;;;;;;;10.04;82.63;100077.13;101934;1304;77013;-24
2022/10/28 01:59:39;;;;;;;11.40;8.00;;;;;;;10.56;81.21;100070.54;101814;1300;73932;-24
2022/10/28 02:02:06;;;;;;;12.00;6.80;;;;;;;10.60;79.37;100072.55;101884;1304;62629;-23
2022/10/28 02:04:33;;;;;;;13.70;8.00;;;;;;;10.32;79.37;100064.42;101985;1301;62901;-23
2022/10/28 02:07:01;;;;;;;11.20;8.00;;;;;;;9.96;81.34;100060.45;101960;1294;76401;-23
2022/10/28 02:09:38;;;;;;;11.80;8.40;;;;;;;9.69;81.84;100060.20;102006;1301;76767;-23
2022/10/28 02:12:22;;;;;;;8.40;6.00;;;;;;;9.41;83.77;100058.58;102038;1296;75288;-23
2022/10/28 02:15:06;;;;;;;;;;;;;;;9.88;83.22;100055.70;102130;1302;62174;-23
2022/10/28 02:17:50;;;;;;;11.90;8.40;;;;;;;10.23;81.18;100057.83;101888;1304;62720;-23
2022/10/28 02:20:28;;;;;;;11.00;7.40;;;;;;;9.91;80.23;100059.17;101930;1300;75072;-24
2022/10/28 02:23:03;;;;;;;9.80;7.20;;;;;;;9.69;81.52;100063.31;102013;1302;76778;-23
2022/10/28 02:25:55;;;;;;;10.90;8.00;;;;;;;9.45;81.73;100058.33;101928;1302;75053;-23
2022/10/28 02:28:45;;;;;;;8.20;4.90;;;;;;;9.22;81.99;100056.59;101931;1296;63169;-24
2022/10/28 02:31:28;;;;;;;7.70;5.40;;;;;;;9.79;81.90;100056.77;101986;1299;62870;-23
2022/10/28 02:33:58;;;;;;;9.40;7.40;;;;;;;10.27;80.63;100056.04;101900;1302;76511;-23
2022/10/28 02:36:26;;;;;;;11.60;6.70;;;;;;;10.25;80.19;100054.77;101896;1304;76893;-24
2022/10/28 02:38:54;;;;;;;10.60;6.90;;;;;;;9.97;79.74;100050.29;101923;1297;75200;-24
2022/10/28 02:41:50;;;;;;;9.90;7.10;;;;;;;9.61;79.94;100046.30;101837;1304;62680;-23
2022/10/28 02:44:19;;;;;;;12.50;8.80;;;;;;;9.19;80.93;100046.20;101834;1294;62920;-23
2022/10/28 02:46:47;;;;;;;5.60;4.10;;;;;;;8.92;81.51;100046.75;101943;1301;76934;-23
2022/10/28 02:49:14;;;;;;;5.70;4.30;;;;;;;9.21;80.77;100046.09;101950;1303;75826;-24
2022/10/28 02:51:51;;;;;;;7.60;5.80;;;;;;;9.60;79.66;100045.65;102024;1300;74076;-24
2022/10/28 02:54:21;;;;;;;8.70;6.60;;;;;;;9.49;79.38;100047.70;101960;1304;63049;-24
2022/10/28 02:57:25;;;;;;;10.40;7.60;;;;;;;9.20;80.42;100041.84;101865;1302;62729;-23
2022/10/28 02:59:57;;;;;;;;;;;;;;;8.84;81.84;100037.48;101975;1302;76421;-23
2022/10/28 03:02:24;;;;;;;9.20;5.90;;;;;;;8.53;82.29;100035.45;101899;1302;76765;-23
2022/10/28 03:04:51;;;;;;;3.40;2.90;;;;;;;8.26;82.80;100035.76;102026;1302;75192;-23
2022/10/28 03:07:18;;;;;;;5.10;3.90;;;;;;;8.59;82.66;100034.08;102023;1294;62908;-23
2022/10/28 03:09:46;;;;;;;5.40;4.80;;;;;;;9.02;81.43;100032.48;102120;1301;62984;-23
2022/10/28 03:12:13;;;;;;;9.90;6.20;;;;;;;8.96;80.81;100031.11;102120;1293;75111;-24
2022/10/28 03:14:41;;;;;;;6.40;5.50;;;;;;;8.68;80.91;100033.77;102076;1301;76785;-23
2022/10/28 03:17:08;;;;;;;9.60;5.80;;;;;;;8.37;81.83;100036.00;102045;1302;75316;-23
2022/10/28 03:19:35;;;;;;;11.70;6.90;;;;;;;8.06;82.57;100034.95;102109;1301;62838;-23
2022/10/28 03:22:02;;;;;;;6.00;4.90;;;;;;;7.86;84.23;100040.69;102068;1300;61761;-23
2022/10/28 03:24:29;;;;;;;9.00;5.90;;;;;;;8.31;84.99;100042.86;102088;1301;75425;-23
2022/10/28 03:26:56;;;;;;;9.90;7.40;;;;;;;8.86;82.99;100047.96;102000;1300;76877;-23
2022/10/28 03:29:24;;;;;;;7.40;5.50;;;;;;;8.84;81.24;100047.05;102019;1300;74171;-23
2022/10/28 03:31:51;;;;;;;12.50;7.20;;;;;;;8.59;80.87;100044.80;102166;1294;63488;-23
2022/10/28 03:34:18;;;;;;;6.80;6.10;;;;;;;8.31;81.55;100045.33;102211;1301;62831;-23
2022/10/28 03:36:45;;;;;;;14.10;8.60;;;;;;;8.05;82.67;100043.44;102233;1301;76433;-23
2022/10/28 03:39:13;;;;;;;10.70;6.40;;;;;;;7.83;83.25;100040.84;102055;1296;76142;-24
2022/10/28 03:41:41;;;;;;;11.80;7.80;;;;;;;8.18;84.19;100039.45;102092;1301;75347;-23
2022/10/28 03:44:08;;;;;;;11.20;8.30;;;;;;;8.69;83.43;100043.94;102013;1301;62889;-23
2022/10/28 03:46:35;;;;;;;12.40;8.60;;;;;;;8.75;82.09;100041.66;102092;1289;62927;-23
2022/10/28 03:49:02;;;;;;;8.70;7.00;;;;;;;8.54;81.81;100037.64;102027;1295;76032;-23
2022/10/28 03:51:29;;;;;;;9.90;7.20;;;;;;;8.22;81.65;100033.86;102080;1301;76800;-23
2022/10/28 03:53:57;;;;;;;9.50;7.30;;;;;;;7.90;82.13;100033.55;102128;1296;75293;-23
2022/10/28 03:56:24;;;;;;;6.50;5.20;;;;;;;7.66;83.11;100035.04;102077;1300;64611;-23
2022/10/28 03:58:52;;;;;;;7.30;5.70;;;;;;;8.05;83.52;100031.88;102130;1294;61913;-23
2022/10/28 04:01:19;;;;;;;9.50;7.20;;;;;;;8.51;82.37;100030.55;102012;1301;76505;-23
2022/10/28 04:03:46;;;;;;;8.80;7.30;;;;;;;8.53;81.83;100027.53;101947;1302;75818;-23
2022/10/28 04:06:13;;;;;;;7.10;6.10;;;;;;;8.30;81.57;100023.57;101941;1305;75283;-23
2022/10/28 04:08:41;;;;;;;7.90;6.50;;;;;;;7.96;81.23;100023.21;101988;1301;62696;-23
2022/10/28 04:11:08;;;;;;;8.00;6.60;;;;;;;7.58;81.61;100020.05;102028;1302;62932;-23
2022/10/28 04:13:35;;;;;;;6.20;5.30;;;;;;;7.26;82.28;100019.82;101952;1301;76400;-23
2022/10/28 04:16:03;;;;;;;5.90;5.20;;;;;;;7.55;82.52;100013.98;101969;1295;76611;-23
2022/10/28 04:18:30;;;;;;;9.00;7.20;;;;;;;7.94;81.49;100008.42;101936;1303;75309;-23
2022/10/28 04:20:58;;;;;;;6.80;5.90;;;;;;;7.89;81.27;100007.52;101905;1302;61512;-23
2022/10/28 04:23:25;;;;;;;7.50;6.20;;;;;;;7.62;81.13;100007.73;102080;1294;62852;-23
2022/10/28 04:25:53;;;;;;;8.60;6.70;;;;;;;7.31;81.97;100013.71;102108;1294;76408;-23
2022/10/28 04:28:22;;;;;;;12.40;8.30;;;;;;;7.01;82.45;100014.53;101990;1297;76520;-23
2022/10/28 04:30:50;;;;;;;6.90;4.90;;;;;;;6.79;82.98;100017.19;101988;1300;74974;-23
2022/10/28 04:33:17;;;;;;;8.50;6.50;;;;;;;7.20;82.91;100018.77;102117;1292;61705;-23
2022/10/28 04:35:44;;;;;;;6.70;5.70;;;;;;;7.72;81.27;100020.69;101930;1300;61200;-23
2022/10/28 04:38:11;;;;;;;9.00;7.30;;;;;;;7.78;80.60;100022.09;102109;1301;76416;-23
2022/10/28 04:40:38;;;;;;;10.30;7.20;;;;;;;7.64;80.90;100021.30;102159;1301;77131;-23
2022/10/28 04:43:05;;;;;;;9.30;7.10;;;;;;;7.41;81.24;100019.91;101999;1294;73926;-23
2022/10/28 04:45:36;;;;;;;8.70;7.10;;;;;;;7.14;81.26;100021.81;101996;1301;63008;-23
2022/10/28 04:48:03;;;;;;;5.60;4.80;;;;;;;6.90;81.78;100022.19;101920;1302;62873;-23
2022/10/28 04:50:30;;;;;;;8.40;6.20;;;;;;;7.22;82.13;100020.89;102018;1301;75346;-23
2022/10/28 04:52:59;;;;;;;11.40;7.00;;;;;;;7.63;81.19;100016.84;102027;1301;76872;-23
2022/10/28 04:55:26;;;;;;;9.30;7.30;;;;;;;7.61;80.87;100015.91;102126;1301;75284;-23
2022/10/28 04:57:57;;;;;;;9.80;7.80;;;;;;;7.36;80.95;100017.23;102031;1294;62862;-23
2022/10/28 05:00:25;;;;;;;9.90;7.50;;;;;;;7.03;81.48;100016.86;101974;1300;61890;-23
2022/10/28 05:02:53;;;;;;;9.10;6.90;;;;;;;6.74;82.01;100024.16;102114;1297;76368;-23
2022/10/28 05:05:20;;;;;;;6.80;5.10;;;;;;;6.53;82.61;100023.85;102190;1299;76824;-23
2022/10/28 05:07:47;;;;;;;8.30;6.20;;;;;;;6.93;82.86;100019.94;102072;1294;74178;-23
2022/10/28 05:10:16;;;;;;;11.30;8.00;;;;;;;7.45;81.84;100018.85;102137;1301;62916;-23
2022/10/28 05:12:44;;;;;;;13.20;8.30;;;;;;;7.49;82.16;100022.29;101988;1299;63064;-23
2022/10/28 05:15:12;;;;;;;9.50;7.80;;;;;;;7.32;82.63;100026.45;102009;1301;76156;-23
2022/10/28 05:17:43;;;;;;;12.70;8.40;;;;;;;7.10;83.33;100025.30;102006;1299;76792;-23
2022/10/28 05:20:10;;;;;;;14.80;9.60;;;;;;;6.88;84.58;100025.73;102016;1304;75282;-24
2022/10/28 05:22:37;;;;;;;9.30;6.60;;;;;;;6.73;86.23;100025.95;102126;1294;63506;-24
2022/10/28 05:25:05;;;;;;;12.50;8.70;;;;;;;7.29;85.91;100020.17;101880;1299;61501;-24
2022/10/28 05:27:32;;;;;;;13.10;9.00;;;;;;;7.83;84.02;100022.86;101987;1299;75179;-24
2022/10/28 05:29:59;;;;;;;11.10;8.70;;;;;;;7.88;82.68;100022.97;102059;1294;76833;-24
2022/10/28 05:32:26;;;;;;;10.50;8.20;;;;;;;7.68;82.43;100021.58;102153;1298;74113;-24
2022/10/28 05:34:53;;;;;;;10.80;8.30;;;;;;;7.40;82.72;100017.54;102043;1301;61905;-24
2022/10/28 05:37:20;;;;;;;8.70;7.10;;;;;;;7.19;83.43;100020.20;101986;1291;61872;-24
2022/10/28 05:39:47;;;;;;;9.50;7.10;;;;;;;7.48;83.60;100014.52;101988;1291;76378;-24
2022/10/28 05:42:14;;;;;;;10.00;8.40;;;;;;;7.75;82.92;100017.77;102018;1299;76829;-24
2022/10/28 05:44:42;;;;;;;9.90;6.60;;;;;;;7.74;83.04;100019.05;102028;1295;74987;-24
2022/10/28 05:47:09;;;;;;;8.90;7.20;;;;;;;7.60;83.69;100019.78;102096;1301;62622;-23
2022/10/28 05:49:36;;;;;;;7.00;5.40;;;;;;;7.48;84.56;100016.27;101970;1299;61727;-24
2022/10/28 05:52:03;;;;;;;8.10;5.80;;;;;;;7.89;84.79;100016.52;102218;1301;76451;-24
2022/10/28 05:54:30;;;;;;;10.10;7.60;;;;;;;8.30;83.08;100016.84;102181;1294;76781;-24
2022/10/28 05:56:57;;;;;;;10.70;8.40;;;;;;;8.29;82.82;100018.62;102114;1302;75247;-24
2022/10/28 05:59:24;;;;;;;10.10;8.30;;;;;;;8.19;82.98;100020.58;101969;1295;61815;-24
2022/10/28 06:01:51;;;;;;;9.00;7.70;;;;;;;7.93;83.55;100016.79;102119;1300;61716;-24
2022/10/28 06:04:19;;;;;;;6.60;5.30;;;;;;;7.67;84.30;100020.77;101963;1292;76398;-24
2022/10/28 06:06:46;;;;;;;7.40;6.10;;;;;;;7.99;84.09;100020.47;101959;1295;76796;-23
2022/10/28 06:09:13;;;;;;;9.40;7.70;;;;;;;8.42;82.53;100017.34;102127;1301;73249;-24
2022/10/28 06:11:40;;;;;;;12.20;7.80;;;;;;;8.36;82.15;100013.52;102028;1301;62828;-24
2022/10/28 06:14:07;;;;;;;8.20;6.90;;;;;;;8.21;82.82;100013.01;101992;1302;62862;-24
2022/10/28 06:16:35;;;;;;;11.10;7.80;;;;;;;7.97;83.79;100016.72;101938;1301;76101;-24
2022/10/28 06:19:02;;;;;;;11.30;8.20;;;;;;;7.88;84.52;100024.86;101933;1297;76720;-23
2022/10/28 06:21:28;;;;;;;7.00;5.10;;;;;;;7.73;85.07;100028.08;102059;1294;73781;-23
2022/10/28 06:23:56;;;;;;;9.40;6.70;;;;;;;8.19;84.18;100028.02;102121;1295;63097;-24
2022/10/28 06:26:23;;;;;;;10.00;7.20;;;;;;;8.75;83.06;100028.48;102011;1301;62105;-24
2022/10/28 06:28:50;;;;;;;9.90;7.40;;;;;;;8.84;82.07;100031.98;101917;1295;75333;-23
2022/10/28 06:31:17;;;;;;;11.80;7.70;;;;;;;8.69;82.35;100031.45;102111;1302;76712;-23
2022/10/28 06:33:44;;;;;;;9.20;7.70;;;;;;;8.52;82.50;100030.35;102108;1300;75208;-23
2022/10/28 06:36:11;;;;;;;10.30;7.40;;;;;;;8.31;83.01;100031.13;102015;1297;62662;-24
2022/10/28 06:38:38;;;;;;;8.00;5.40;;;;;;;8.08;84.02;100036.88;102103;1301;61523;-24
2022/10/28 06:41:06;;;;;;;9.00;6.90;;;;;;;8.59;83.45;100039.63;101985;1300;75363;-24
2022/10/28 06:43:33;;;;;;;10.70;8.20;;;;;;;8.91;82.23;100039.00;102128;1301;76132;-24
2022/10/28 06:46:01;;;;;;;9.10;7.20;;;;;;;8.93;82.30;100036.95;102110;1300;75239;-24
2022/10/28 06:48:28;;;;;;;9.90;7.70;;;;;;;8.81;82.92;100038.70;102061;1300;62968;-23
2022/10/28 06:50:56;;;;;;;11.10;8.60;;;;;;;8.58;83.56;100043.33;102046;1301;62858;-24
2022/10/28 06:53:24;;;;;;;7.00;5.50;;;;;;;8.51;83.81;100044.77;102044;1294;76424;-24
2022/10/28 06:55:55;;;;;;;10.70;7.40;;;;;;;8.87;83.96;100041.47;102214;1295;75960;-23
2022/10/28 06:58:23;;;;;;;9.60;7.40;;;;;;;9.35;82.23;100037.81;101895;1306;73620;-24
2022/10/28 07:00:50;;;;;;;11.90;7.80;;;;;;;9.40;81.89;100037.14;102012;1295;62671;-24
2022/10/28 07:03:18;;;;;;;11.20;8.20;;;;;;;9.22;82.38;100039.80;102065;1301;62864;-23
2022/10/28 07:05:45;;;;;;;12.70;8.60;;;;;;;8.95;83.53;100043.79;101873;1297;76345;-24
2022/10/28 07:08:13;;;;;;;7.80;6.20;;;;;;;8.82;84.72;100045.61;101877;1299;75836;-24
2022/10/28 07:10:40;;;;;;;9.30;6.80;;;;;;;9.34;84.13;100039.94;102048;1296;74949;-23
2022/10/28 07:13:08;;;;;;;13.50;9.30;;;;;;;9.88;82.22;100034.20;102068;1301;63380;-24
2022/10/28 07:15:35;;;;;;;13.60;8.60;;;;;;;9.98;81.78;100035.65;102062;1302;61848;-24
2022/10/28 07:18:02;;;;;;;10.30;7.40;;;;;;;9.95;82.11;100033.08;102036;1299;76565;-24
2022/10/28 07:20:31;;;;;;;12.80;7.90;;;;;;;9.80;82.18;100035.42;101930;1294;75793;-24
2022/10/28 07:22:59;;;;;;;11.70;7.20;;;;;;;9.67;82.92;100038.44;101994;1294;74998;-23
2022/10/28 07:25:27;;;;;;;11.60;8.70;;;;;;;9.90;82.40;100040.88;102131;1291;61867;-24
2022/10/28 07:27:58;;;;;;;12.80;9.30;;;;;;;10.27;82.27;100037.30;101901;1299;61812;-24
2022/10/28 07:30:26;;;;;;;13.40;8.80;;;;;;;10.29;81.62;100034.05;102027;1297;76380;-24
2022/10/28 07:32:53;;;;;;;13.90;10.10;;;;;;;10.09;81.97;100034.30;102096;1294;75553;-24
2022/10/28 07:35:21;;;;;;;15.50;10.00;;;;;;;9.98;83.16;100029.58;102153;1294;74496;-24
2022/10/28 07:37:48;;;;;;;12.60;6.90;;;;;;;9.94;83.48;100034.37;102120;1294;64463;-24
2022/10/28 07:40:15;;;;;;;13.00;8.00;;;;;;;10.52;82.52;100033.16;102020;1301;61575;-24
2022/10/28 07:42:42;;;;;;;12.30;8.60;;;;;;;10.93;80.58;100037.40;102071;1291;76676;-24
2022/10/28 07:45:09;;;;;;;12.70;9.10;;;;;;;10.94;80.13;100037.66;101965;1299;74715;-25
2022/10/28 07:47:36;;;;;;;12.80;9.10;;;;;;;10.77;80.83;100041.25;101990;1299;74009;-24
2022/10/28 07:50:04;;;;;;;13.90;8.90;;;;;;;10.69;80.85;100038.33;101900;1301;62708;-24
2022/10/28 07:52:31;;;;;;;10.10;7.80;;;;;;;10.52;81.73;100034.34;102117;1291;61724;-24
2022/10/28 07:54:58;;;;;;;11.20;7.00;;;;;;;10.53;82.01;100037.58;102111;1301;75432;-24
2022/10/28 07:57:25;;;;;;;10.30;7.50;;;;;;;11.01;80.62;100033.91;101967;1294;75758;-25
2022/10/28 07:59:52;;;;;;;10.90;8.10;;;;;;;11.36;80.01;100032.45;102094;1301;74937;-24
2022/10/28 08:02:22;;;;;;;12.40;8.90;;;;;;;11.37;79.00;100030.23;102139;1297;61937;-24
2022/10/28 08:04:49;;;;;;;16.90;10.50;;;;;;;11.16;79.44;100032.02;101965;1304;62858;-24
2022/10/28 08:07:16;;;;;;;13.90;9.70;;;;;;;11.05;80.57;100032.05;102030;1297;76409;-24
2022/10/28 08:09:43;;;;;;;9.30;6.90;;;;;;;10.91;80.97;100030.22;101982;1302;76113;-24
2022/10/28 08:12:14;;;;;;;9.40;6.80;;;;;;;11.28;80.56;100031.55;102089;1302;74227;-25
2022/10/28 08:14:41;;;;;;;12.50;8.20;;;;;;;11.69;78.48;100025.25;101872;1304;62924;-23
2022/10/28 08:17:08;;;;;;;15.00;9.10;;;;;;;11.69;77.56;100024.89;102211;1299;61828;-23
2022/10/28 08:19:36;;;;;;;12.40;7.90;;;;;;;11.72;78.14;100025.07;102077;1302;75323;-25
2022/10/28 08:22:03;;;;;;;12.90;9.10;;;;;;;11.69;77.89;100025.44;102102;1301;76772;-23
2022/10/28 08:24:30;;;;;;;12.60;8.30;;;;;;;11.65;78.23;100021.68;101936;1303;75228;-23
2022/10/28 08:26:57;;;;;;;13.20;9.90;;;;;;;11.69;78.06;100025.39;102038;1294;63034;-23
2022/10/28 08:29:24;;;;;;;12.00;9.10;;;;;;;11.64;78.32;100020.61;101991;1302;62623;-23
2022/10/28 08:31:56;;;;;;;11.40;9.00;;;;;;;11.79;78.67;100025.39;101998;1294;74691;-23
2022/10/28 08:34:28;;;;;;;8.20;6.20;;;;;;;12.07;78.12;100021.56;102127;1301;76509;-23
2022/10/28 08:36:56;;;;;;;9.20;6.90;;;;;;;12.80;76.20;100016.80;102131;1301;75466;-23
2022/10/28 08:39:23;;;;;;;10.60;7.70;;;;;;;13.26;73.63;100013.94;102195;1302;62640;-23
2022/10/28 08:42:28;;;;;;;10.40;7.10;;;;;;;13.53;73.01;100016.65;102151;1301;62855;-23
2022/10/28 08:45:02;;;;;;;9.60;7.30;;;;;;;13.48;72.19;100014.06;102187;1301;75415;-23
2022/10/28 08:47:42;;;;;;;10.80;8.40;;;;;;;13.28;72.12;100013.12;102048;1302;75550;-24
2022/10/28 08:50:14;;;;;;;11.70;8.60;;;;;;;13.24;72.62;100009.63;101898;1297;74951;-23
2022/10/28 08:52:47;;;;;;;11.70;7.80;;;;;;;13.13;72.72;100007.95;101931;1302;63084;-24
2022/10/28 08:55:27;;;;;;;10.20;6.90;;;;;;;13.16;73.51;100003.75;102014;1297;62299;-24
2022/10/28 08:58:15;;;;;;;10.40;7.00;;;;;;;13.32;73.08;100005.53;102041;1296;76476;-25
2022/10/28 09:00:45;;;;;;;8.60;7.00;;;;;;;13.54;72.21;99999.95;101826;1302;74041;-23
2022/10/28 09:03:12;;;;;;;9.50;6.30;;;;;;;13.69;71.48;99994.96;101793;1305;74016;-23
2022/10/28 09:05:41;;;;;;;9.10;6.90;;;;;;;13.76;71.51;99998.60;102089;1300;62642;-23
2022/10/28 09:08:20;;;;;;;6.70;5.80;;;;;;;14.02;71.05;99997.61;101961;1292;62821;-23
2022/10/28 09:10:53;;;;;;;9.60;6.20;;;;;;;14.28;70.58;99991.96;101932;1301;76566;-24
2022/10/28 09:13:30;;;;;;;;;;;;;;;14.49;69.52;99987.63;101374;1295;1102449;-23
2022/10/28 09:16:28;;;;;;;7.80;5.90;;;;;;;14.68;68.19;99986.41;102076;1301;74205;-24
2022/10/28 09:18:56;;;;;;;7.70;5.70;;;;;;;14.87;67.81;99984.91;101994;1301;62915;-24
2022/10/28 09:21:56;;;;;;;7.30;5.40;;;;;;;14.90;67.19;99985.20;101950;1302;62603;-24
2022/10/28 09:24:51;;;;;;;10.10;5.40;;;;;;;14.92;66.18;99983.93;102003;1301;76448;-23
2022/10/28 09:27:53;;;;;;;9.00;4.90;;;;;;;14.90;66.70;99978.68;102231;1294;76986;-24
2022/10/28 09:30:36;;;;;;;6.50;5.00;;;;;;;15.18;65.61;99975.77;101800;1305;75135;-23
2022/10/28 09:33:27;;;;;;;5.70;4.70;;;;;;;15.42;65.77;99966.01;101763;1305;62145;-24
2022/10/28 09:35:54;;;;;;;6.40;4.70;;;;;;;15.66;65.23;99968.68;101557;1304;61118;-23
2022/10/28 09:38:26;;;;;;;7.90;5.00;;;;;;;15.68;64.87;99969.90;101424;1303;76424;-24
2022/10/28 09:41:18;;;;;;;10.60;5.50;;;;;;;15.77;64.92;99967.92;101446;1309;76861;-24
2022/10/28 09:43:57;;;;;;;9.50;5.00;;;;;;;15.76;64.91;99959.11;101395;1305;73136;-23
2022/10/28 09:46:25;;;;;;;8.50;4.90;;;;;;;15.97;63.44;99955.50;101531;1303;61253;-24
2022/10/28 09:48:55;;;;;;;7.10;5.10;;;;;;;16.14;63.25;99950.80;101509;1303;61838;-24
2022/10/28 09:51:49;;;;;;;7.20;4.60;;;;;;;16.34;62.23;99951.12;101600;1307;75485;-24
2022/10/28 09:54:17;;;;;;;;;;;;;;;16.59;61.40;99945.17;101625;1304;75894;-24
2022/10/28 09:56:44;;;;;;;10.90;5.30;;;;;;;16.79;61.59;99943.80;101730;1298;75246;-23
2022/10/28 09:59:13;;;;;;;7.60;4.80;;;;;;;17.05;60.67;99943.57;101655;1306;62644;-24
2022/10/28 10:01:41;;;;;;;5.70;4.20;;;;;;;17.28;59.67;99937.83;101491;1306;62973;-24
2022/10/28 10:04:17;;;;;;;7.40;4.10;;;;;;;17.65;58.96;99934.14;101528;1305;74180;-24
2022/10/28 10:06:44;;;;;;;7.10;4.80;;;;;;;17.77;58.18;99934.25;101971;1301;75862;-24
2022/10/28 10:09:29;;;;;;;6.00;4.10;;;;;;;17.71;58.21;99926.25;101950;1297;75291;-24
2022/10/28 10:11:59;;;;;;;8.40;4.80;;;;;;;17.66;57.95;99927.57;101918;1304;62934;-24
2022/10/28 10:14:34;;;;;;;11.70;4.70;;;;;;;17.62;58.40;99923.02;102021;1300;62554;-24
2022/10/28 10:17:06;;;;;;;8.40;4.20;;;;;;;17.53;58.40;99917.46;101937;1295;76286;-24
2022/10/28 10:20:13;;;;;;;17.70;3.80;;;;;;;17.74;58.38;99915.95;101940;1300;76907;-24
2022/10/28 10:22:42;;;;;;;7.10;4.10;;;;;;;17.89;57.69;99912.89;101675;1307;75110;-24
2022/10/28 10:25:18;;;;;;;8.60;3.80;;;;;;;17.65;58.21;99906.81;101287;1307;61872;-24
2022/10/28 10:28:15;;;;;;;9.90;3.90;;;;;;;17.52;58.10;99908.38;101382;1310;62854;-24
2022/10/28 10:30:59;;;;;;;5.60;4.00;;;;;;;17.45;58.73;99904.17;101363;1311;76132;-24
2022/10/28 10:33:35;;;;;;;5.70;3.40;;;;;;;17.40;58.16;99906.92;101233;1312;76730;-24
2022/10/28 10:36:14;;;;;;;5.70;4.00;;;;;;;17.33;58.73;99903.20;101330;1309;75531;-24
2022/10/28 10:40:56;;;;;;;6.30;4.40;;;;;;;17.14;60.22;99903.76;99161;1334;600028;-23
2022/10/28 10:43:30;;;;;;;6.20;4.20;;;;;;;17.19;59.62;99898.79;101100;1314;62648;-23
2022/10/28 10:46:01;;;;;;;6.60;4.20;;;;;;;17.18;59.27;99900.75;100721;1318;61548;-23
2022/10/28 10:48:31;;;;;;;5.90;3.90;;;;;;;17.15;59.52;99904.55;100684;1317;74828;-24
2022/10/28 10:50:58;;;;;;;6.50;3.80;;;;;;;17.16;60.29;99903.55;101433;1315;75595;-23
2022/10/28 10:53:27;;;;;;;9.10;4.40;;;;;;;17.17;60.23;99905.46;100869;1306;1078778;-24
2022/10/28 10:56:00;;;;;;;9.50;4.00;;;;;;;17.25;60.64;99904.83;101900;1303;61640;-23
2022/10/28 10:58:35;;;;;;;7.30;4.40;;;;;;;17.21;59.79;99902.61;101976;1302;61566;-23
2022/10/28 11:01:04;;;;;;;6.20;3.70;;;;;;;17.07;60.47;99903.52;101838;1298;73452;-23
2022/10/28 11:03:37;;;;;;;5.80;3.30;;;;;;;16.67;60.94;99897.40;101798;1304;76782;-23
2022/10/28 11:06:06;;;;;;;6.30;3.80;;;;;;;16.39;62.01;99900.00;101917;1306;74144;-23
2022/10/28 11:08:57;;;;;;;6.30;3.70;;;;;;;16.33;62.12;99895.52;101852;1303;61860;-23
2022/10/28 11:11:38;;;;;;;6.50;4.10;;;;;;;16.28;62.43;99895.24;101887;1292;61920;-24
2022/10/28 11:14:30;;;;;;;7.70;4.10;;;;;;;16.27;62.58;99893.39;101856;1304;74558;-23
2022/10/28 11:17:01;;;;;;;5.30;4.00;;;;;;;16.32;62.87;99893.80;101914;1303;76776;-23
2022/10/28 11:19:35;;;;;;;7.40;4.00;;;;;;;16.43;62.28;99892.64;101837;1306;74297;-23
2022/10/28 11:22:18;;;;;;;5.90;4.10;;;;;;;16.52;61.73;99895.32;101867;1306;62676;-23
2022/10/28 11:25:00;;;;;;;5.20;3.20;;;;;;;16.55;62.24;99887.64;101842;1304;62836;-23
2022/10/28 11:27:46;;;;;;;8.50;4.10;;;;;;;16.77;61.65;99890.55;102050;1298;75669;-23
2022/10/28 11:30:26;;;;;;;6.00;4.40;;;;;;;17.04;60.39;99877.50;101862;1309;76666;-23
2022/10/28 11:33:10;;;;;;;6.40;4.00;;;;;;;16.93;60.84;99876.04;101885;1298;74470;-23
2022/10/28 11:36:06;;;;;;;5.10;3.80;;;;;;;16.93;61.08;99876.26;101850;1302;61161;-23
2022/10/28 11:38:47;;;;;;;5.60;3.70;;;;;;;16.98;60.99;99876.17;101849;1305;63090;-23
2022/10/28 11:41:27;;;;;;;6.60;3.80;;;;;;;16.97;60.95;99869.07;101887;1301;74273;-23
2022/10/28 11:43:57;;;;;;;7.60;3.80;;;;;;;16.80;60.99;99875.06;101782;1302;75709;-23
2022/10/28 11:47:06;;;;;;;5.10;3.50;;;;;;;16.71;61.39;99868.86;101866;1302;74113;-23